| time (UTC) | temp F | wind direction | speed MPH | gust MPH | rain 1hr in | rain 24hr in | rain mn in | humidity % | barometer mb |
| 20260507061943 | 49 | 0 | 2.0 | 11.0 | 0.00 | 0.00 | 0.00 | 85 | 1016.2 |
| 20260507060942 | 48 | 338 | 3.0 | 11.0 | 0.00 | 0.00 | 0.00 | 86 | 1016.2 |
| 20260507055939 | 48 | 22 | 3.0 | 11.0 | 0.00 | 0.00 | 0.00 | 86 | 1016.1 |
| 20260507054938 | 47 | 22 | 2.0 | 11.0 | 0.00 | 0.00 | 0.00 | 87 | 1016.1 |
| 20260507053937 | 47 | 22 | 3.0 | 11.0 | 0.00 | 0.00 | 0.00 | 87 | 1016.0 |
| 20260507052936 | 46 | 22 | 2.0 | 11.0 | 0.00 | 0.00 | 0.00 | 87 | 1016.0 |
| 20260507051933 | 46 | 0 | 2.0 | 11.0 | 0.00 | 0.00 | 0.00 | 87 | 1015.8 |
| 20260507050933 | 46 | 0 | 1.0 | 11.0 | 0.00 | 0.00 | 0.00 | 87 | 1015.9 |
| 20260507045931 | 45 | 338 | 1.0 | 11.0 | 0.00 | 0.00 | 0.00 | 86 | 1015.7 |
| 20260507044930 | 45 | 0 | 2.0 | 11.0 | 0.00 | 0.00 | 0.00 | 86 | 1015.5 |
| 20260507043928 | 45 | 22 | 2.0 | 11.0 | 0.00 | 0.00 | 0.00 | 86 | 1015.4 |
| 20260507042927 | 45 | 0 | 1.0 | 11.0 | 0.00 | 0.00 | 0.00 | 86 | 1015.4 |
| 20260507041925 | 45 | 22 | 1.0 | 11.0 | 0.00 | 0.00 | 0.00 | 86 | 1015.3 |
| 20260507040924 | 45 | 0 | 2.0 | 11.0 | 0.00 | 0.00 | 0.00 | 86 | 1015.2 |
| 20260507035919 | 45 | 338 | 2.0 | 11.0 | 0.00 | 0.00 | 0.00 | 86 | 1015.1 |
| 20260507034917 | 45 | 338 | 1.0 | 11.0 | 0.00 | 0.00 | 0.00 | 86 | 1015.1 |
| 20260507033917 | 45 | 45 | 1.0 | 11.0 | 0.00 | 0.00 | 0.00 | 86 | 1015.0 |
| 20260507032915 | 45 | 338 | 1.0 | 11.0 | 0.00 | 0.00 | 0.00 | 86 | 1015.0 |
| 20260507031913 | 45 | 338 | 1.0 | 11.0 | 0.00 | 0.00 | 0.00 | 86 | 1015.0 |
| 20260507030911 | 45 | 22 | 1.0 | 11.0 | 0.00 | 0.00 | 0.00 | 86 | 1015.0 |
| 20260507025911 | 46 | 22 | 2.0 | 11.0 | 0.00 | 0.00 | 0.00 | 86 | 1014.9 |
| 20260507024910 | 46 | 22 | 2.0 | 11.0 | 0.00 | 0.00 | 0.00 | 86 | 1014.9 |
| 20260507023909 | 46 | 0 | 2.0 | 11.0 | 0.00 | 0.00 | 0.00 | 86 | 1014.9 |
| 20260507022908 | 46 | 0 | 1.0 | 11.0 | 0.00 | 0.00 | 0.00 | 85 | 1014.9 |
| 20260507021906 | 46 | 22 | 1.0 | 11.0 | 0.00 | 0.00 | 0.00 | 85 | 1014.8 |
| 20260507020904 | 46 | 22 | 1.0 | 11.0 | 0.00 | 0.00 | 0.00 | 85 | 1014.7 |
| 20260507015904 | 47 | 338 | 2.0 | 11.0 | 0.00 | 0.00 | 0.00 | 85 | 1014.7 |
| 20260507014903 | 51 | 45 | 3.0 | 11.0 | 0.00 | 0.00 | 0.00 | 78 | 1013.9 |
| 20260507013901 | 47 | 338 | 1.0 | 11.0 | 0.00 | 0.00 | 0.00 | 85 | 1014.7 |
| 20260507012900 | 47 | 22 | 2.0 | 11.0 | 0.00 | 0.00 | 0.00 | 84 | 1014.5 |
| 20260507011859 | 48 | 0 | 1.0 | 11.0 | 0.00 | 0.00 | 0.00 | 85 | 1014.4 |
| 20260507010858 | 48 | 338 | 2.0 | 11.0 | 0.00 | 0.00 | 0.00 | 84 | 1014.4 |
| 20260507005857 | 48 | 22 | 2.0 | 11.0 | 0.00 | 0.00 | 0.00 | 84 | 1014.3 |
| 20260507004857 | 48 | 22 | 2.0 | 11.0 | 0.00 | 0.00 | 0.00 | 84 | 1014.3 |
| 20260507003854 | 49 | 22 | 2.0 | 11.0 | 0.00 | 0.00 | 0.00 | 84 | 1014.3 |
| 20260507002853 | 49 | 45 | 3.0 | 11.0 | 0.00 | 0.00 | 0.00 | 83 | 1014.2 |
| 20260507001852 | 49 | 338 | 3.0 | 11.0 | 0.00 | 0.00 | 0.00 | 83 | 1014.1 |
| 20260507000852 | 49 | 45 | 3.0 | 11.0 | 0.00 | 0.00 | 0.00 | 83 | 1014.2 |
| 20260506235851 | 49 | 45 | 3.0 | 11.0 | 0.00 | 0.00 | 0.00 | 82 | 1014.0 |
| 20260506234850 | 50 | 0 | 3.0 | 11.0 | 0.00 | 0.00 | 0.00 | 81 | 1014.0 |
| 20260506233848 | 50 | 45 | 3.0 | 11.0 | 0.00 | 0.00 | 0.00 | 81 | 1013.9 |
| 20260506232848 | 50 | 22 | 3.0 | 11.0 | 0.00 | 0.00 | 0.00 | 80 | 1013.9 |
| 20260506231848 | 51 | 45 | 3.0 | 11.0 | 0.00 | 0.00 | 0.00 | 79 | 1013.9 |
| 20260506230846 | 51 | 45 | 3.0 | 11.0 | 0.00 | 0.00 | 0.00 | 78 | 1013.9 |
| 20260506225846 | 52 | 22 | 4.0 | 11.0 | 0.00 | 0.00 | 0.00 | 78 | 1013.8 |
| 20260506224845 | 52 | 45 | 5.0 | 11.0 | 0.00 | 0.00 | 0.00 | 77 | 1013.8 |
| 20260506223845 | 52 | 45 | 4.0 | 11.0 | 0.00 | 0.00 | 0.00 | 77 | 1013.7 |
| 20260506222845 | 52 | 22 | 4.0 | 11.0 | 0.00 | 0.00 | 0.00 | 76 | 1013.7 |
| 20260506221844 | 53 | 22 | 4.0 | 11.0 | 0.00 | 0.00 | 0.00 | 76 | 1013.7 |
| 20260506220843 | 53 | 0 | 4.0 | 11.0 | 0.00 | 0.00 | 0.00 | 75 | 1013.6 |
| 20260506215841 | 53 | 338 | 4.0 | 19.0 | 0.00 | 0.00 | 0.00 | 75 | 1013.6 |
| 20260506214840 | 53 | 315 | 3.0 | 19.0 | 0.00 | 0.00 | 0.00 | 74 | 1013.5 |
| 20260506213840 | 53 | 0 | 4.0 | 19.0 | 0.00 | 0.00 | 0.00 | 74 | 1013.3 |
| 20260506212839 | 53 | 45 | 3.0 | 19.0 | 0.00 | 0.00 | 0.00 | 73 | 1013.4 |
| 20260506211838 | 54 | 338 | 4.0 | 19.0 | 0.00 | 0.00 | 0.00 | 73 | 1013.2 |
| 20260506210837 | 54 | 22 | 4.0 | 19.0 | 0.00 | 0.00 | 0.00 | 73 | 1013.1 |
| 20260506205836 | 54 | 22 | 4.0 | 19.0 | 0.00 | 0.00 | 0.00 | 73 | 1013.0 |
| 20260506204835 | 54 | 22 | 3.0 | 19.0 | 0.00 | 0.00 | 0.00 | 73 | 1012.9 |
| 20260506203835 | 54 | 22 | 4.0 | 19.0 | 0.00 | 0.00 | 0.00 | 74 | 1012.9 |
| 20260506202834 | 54 | 0 | 3.0 | 19.0 | 0.00 | 0.00 | 0.00 | 74 | 1012.9 |
| 20260506201832 | 54 | 0 | 3.0 | 19.0 | 0.00 | 0.00 | 0.00 | 74 | 1012.9 |
| 20260506200832 | 54 | 45 | 3.0 | 19.0 | 0.00 | 0.00 | 0.00 | 74 | 1012.7 |
| 20260506195830 | 54 | 45 | 4.0 | 19.0 | 0.00 | 0.00 | 0.00 | 74 | 1012.7 |
| 20260506194830 | 55 | 45 | 5.0 | 19.0 | 0.00 | 0.00 | 0.00 | 73 | 1012.6 |
| 20260506193830 | 55 | 45 | 4.0 | 19.0 | 0.00 | 0.00 | 0.00 | 72 | 1012.6 |
| 20260506192829 | 55 | 22 | 3.0 | 19.0 | 0.00 | 0.00 | 0.00 | 70 | 1012.4 |
| 20260506191827 | 55 | 45 | 3.0 | 19.0 | 0.00 | 0.00 | 0.00 | 70 | 1012.3 |
| 20260506190826 | 55 | 45 | 3.0 | 19.0 | 0.00 | 0.00 | 0.00 | 69 | 1012.2 |
| 20260506185825 | 55 | 22 | 3.0 | 19.0 | 0.00 | 0.00 | 0.00 | 69 | 1012.0 |
| 20260506184825 | 56 | 45 | 3.0 | 19.0 | 0.00 | 0.00 | 0.00 | 68 | 1011.9 |
| 20260506183824 | 56 | 45 | 5.0 | 19.0 | 0.00 | 0.00 | 0.00 | 67 | 1011.8 |
| 20260506182823 | 56 | 68 | 4.0 | 19.0 | 0.00 | 0.00 | 0.00 | 66 | 1011.7 |
| 20260506181821 | 56 | 90 | 3.0 | 19.0 | 0.00 | 0.00 | 0.00 | 65 | 1011.6 |
| 20260506180821 | 57 | 22 | 3.0 | 19.0 | 0.00 | 0.00 | 0.00 | 64 | 1011.4 |
| 20260506175818 | 57 | 45 | 3.0 | 19.0 | 0.00 | 0.00 | 0.00 | 64 | 1011.4 |
| 20260506174816 | 57 | 45 | 3.0 | 19.0 | 0.00 | 0.00 | 0.00 | 63 | 1011.2 |
| 20260506173816 | 57 | 45 | 3.0 | 19.0 | 0.00 | 0.00 | 0.00 | 62 | 1011.0 |
| 20260506172814 | 58 | 0 | 2.0 | 19.0 | 0.00 | 0.00 | 0.00 | 62 | 1011.0 |
| 20260506171812 | 58 | 22 | 3.0 | 19.0 | 0.00 | 0.00 | 0.00 | 62 | 1010.9 |
| 20260506170811 | 58 | 135 | 2.0 | 19.0 | 0.00 | 0.00 | 0.00 | 61 | 1010.9 |
| 20260506165810 | 58 | 90 | 3.0 | 19.0 | 0.00 | 0.00 | 0.00 | 62 | 1010.8 |
| 20260506164810 | 58 | 68 | 4.0 | 19.0 | 0.00 | 0.00 | 0.00 | 62 | 1010.9 |
| 20260506163804 | 58 | 45 | 4.0 | 19.0 | 0.00 | 0.00 | 0.00 | 61 | 1010.9 |
| 20260506162803 | 58 | 22 | 5.0 | 19.0 | 0.00 | 0.00 | 0.00 | 61 | 1010.9 |
| 20260506161802 | 58 | 90 | 5.0 | 19.0 | 0.00 | 0.00 | 0.00 | 60 | 1010.8 |
| 20260506160802 | 58 | 112 | 5.0 | 19.0 | 0.00 | 0.00 | 0.00 | 59 | 1010.8 |
| 20260506155801 | 58 | 90 | 5.0 | 19.0 | 0.00 | 0.00 | 0.00 | 60 | 1010.9 |
| 20260506154759 | 58 | 45 | 5.0 | 19.0 | 0.00 | 0.00 | 0.00 | 60 | 1010.9 |
| 20260506153759 | 58 | 112 | 4.0 | 19.0 | 0.00 | 0.00 | 0.00 | 60 | 1010.8 |
| 20260506152758 | 58 | 45 | 4.0 | 19.0 | 0.00 | 0.00 | 0.00 | 60 | 1010.9 |
| 20260506151754 | 58 | 90 | 5.0 | 19.0 | 0.00 | 0.00 | 0.00 | 61 | 1010.9 |
| 20260506150753 | 58 | 90 | 5.0 | 19.0 | 0.00 | 0.00 | 0.00 | 59 | 1010.8 |
| 20260506145752 | 58 | 45 | 6.0 | 19.0 | 0.00 | 0.00 | 0.00 | 59 | 1010.7 |
| 20260506144751 | 58 | 90 | 7.0 | 19.0 | 0.00 | 0.00 | 0.00 | 60 | 1010.7 |
| 20260506143750 | 58 | 112 | 5.0 | 19.0 | 0.00 | 0.00 | 0.00 | 58 | 1010.8 |
| 20260506142749 | 58 | 90 | 7.0 | 19.0 | 0.00 | 0.00 | 0.00 | 58 | 1010.7 |
| 20260506141749 | 59 | 90 | 5.0 | 19.0 | 0.00 | 0.00 | 0.00 | 57 | 1010.8 |
| 20260506140748 | 60 | 45 | 5.0 | 19.0 | 0.00 | 0.00 | 0.00 | 55 | 1010.8 |
| 20260506135747 | 60 | 45 | 5.0 | 19.0 | 0.00 | 0.00 | 0.00 | 55 | 1010.7 |
| 20260506134746 | 60 | 68 | 6.0 | 19.0 | 0.00 | 0.00 | 0.00 | 55 | 1010.7 |
| 20260506133746 | 60 | 68 | 8.0 | 19.0 | 0.00 | 0.00 | 0.00 | 56 | 1010.6 |
| 20260506132744 | 60 | 68 | 8.0 | 19.0 | 0.00 | 0.00 | 0.00 | 56 | 1010.5 |
| 20260506131743 | 60 | 112 | 7.0 | 19.0 | 0.00 | 0.00 | 0.00 | 58 | 1010.4 |
| 20260506130743 | 60 | 68 | 7.0 | 19.0 | 0.00 | 0.00 | 0.00 | 57 | 1010.4 |
| 20260506125743 | 60 | 68 | 6.0 | 19.0 | 0.00 | 0.00 | 0.00 | 59 | 1010.3 |
| 20260506124742 | 60 | 112 | 6.0 | 19.0 | 0.00 | 0.00 | 0.00 | 60 | 1010.2 |
| 20260506123741 | 60 | 45 | 7.0 | 19.0 | 0.00 | 0.00 | 0.00 | 57 | 1010.3 |
| 20260506122741 | 61 | 68 | 7.0 | 19.0 | 0.00 | 0.00 | 0.00 | 58 | 1010.1 |
| 20260506121740 | 61 | 45 | 5.0 | 19.0 | 0.00 | 0.00 | 0.00 | 59 | 1010.2 |
| 20260506120740 | 60 | 0 | 6.0 | 19.0 | 0.00 | 0.00 | 0.00 | 62 | 1010.2 |
| 20260506115740 | 59 | 45 | 7.0 | 19.0 | 0.00 | 0.00 | 0.00 | 62 | 1010.2 |
| 20260506114739 | 60 | 68 | 8.0 | 19.0 | 0.00 | 0.00 | 0.00 | 62 | 1010.2 |
| 20260506113736 | 61 | 45 | 8.0 | 19.0 | 0.00 | 0.00 | 0.00 | 61 | 1010.3 |
| 20260506112735 | 60 | 22 | 8.0 | 19.0 | 0.00 | 0.00 | 0.00 | 62 | 1010.2 |
| 20260506111735 | 60 | 112 | 7.0 | 19.0 | 0.00 | 0.00 | 0.00 | 62 | 1010.2 |
| 20260506110734 | 60 | 68 | 7.0 | 18.0 | 0.00 | 0.00 | 0.00 | 62 | 1010.2 |
| 20260506105733 | 58 | 22 | 7.0 | 18.0 | 0.00 | 0.00 | 0.00 | 65 | 1010.2 |
| 20260506104732 | 59 | 22 | 7.0 | 18.0 | 0.00 | 0.00 | 0.00 | 67 | 1010.2 |
| 20260506103731 | 59 | 68 | 8.0 | 18.0 | 0.00 | 0.00 | 0.00 | 67 | 1010.1 |
| 20260506102730 | 58 | 45 | 8.0 | 18.0 | 0.00 | 0.00 | 0.00 | 69 | 1010.2 |
| 20260506101729 | 58 | 22 | 7.0 | 18.0 | 0.00 | 0.00 | 0.00 | 69 | 1010.1 |
| 20260506100729 | 58 | 338 | 7.0 | 18.0 | 0.00 | 0.00 | 0.00 | 69 | 1010.0 |
| 20260506095728 | 60 | 68 | 8.0 | 18.0 | 0.00 | 0.00 | 0.00 | 67 | 1010.0 |
| 20260506094728 | 59 | 68 | 8.0 | 18.0 | 0.00 | 0.00 | 0.00 | 66 | 1009.9 |
| 20260506093728 | 60 | 45 | 6.0 | 15.0 | 0.00 | 0.00 | 0.00 | 64 | 1009.8 |
| 20260506092727 | 60 | 45 | 5.0 | 15.0 | 0.00 | 0.00 | 0.00 | 66 | 1009.8 |
| 20260506091725 | 59 | 22 | 5.0 | 15.0 | 0.00 | 0.00 | 0.00 | 68 | 1009.7 |
| 20260506090724 | 59 | 0 | 6.0 | 15.0 | 0.00 | 0.00 | 0.00 | 69 | 1009.7 |
| 20260506085722 | 58 | 45 | 6.0 | 14.0 | 0.00 | 0.00 | 0.00 | 72 | 1009.7 |
| 20260506084721 | 57 | 22 | 6.0 | 14.0 | 0.00 | 0.00 | 0.00 | 77 | 1009.6 |
| 20260506083720 | 56 | 22 | 6.0 | 14.0 | 0.00 | 0.00 | 0.00 | 78 | 1009.6 |
| 20260506082719 | 56 | 68 | 5.0 | 14.0 | 0.00 | 0.00 | 0.00 | 79 | 1009.5 |
| 20260506081716 | 55 | 22 | 5.0 | 14.0 | 0.00 | 0.00 | 0.00 | 79 | 1009.5 |
| 20260506080715 | 55 | 0 | 5.0 | 14.0 | 0.00 | 0.00 | 0.00 | 80 | 1009.5 |
| 20260506072711 | 53 | 22 | 5.0 | 14.0 | 0.00 | 0.00 | 0.00 | 83 | 1009.5 |
| 20260506071710 | 52 | 0 | 5.0 | 14.0 | 0.00 | 0.00 | 0.00 | 83 | 1009.5 |
| 20260506070709 | 52 | 0 | 5.0 | 14.0 | 0.00 | 0.00 | 0.00 | 83 | 1009.4 |